Wakefield, Mississippi
Current Conditions -  °F | °C
As of 1:55 AM on Monday 22 Dec 2014 (Local Time) from KUTA Reporting Station
Haze Haze  
Wind Chill:   Ceiling: 300
Heat Index:   Visibility: 2mi
Dew Point:   Wind: 13mph
Humidity: 93%   Direction: 150°SSE
Pressure: 29.9"   Gusts: NA
Location:  34.6957°N, 90.0062°W
Report Text: KUTA 220755Z AUTO 15011KT 2SM BR OVC003 08/07 A2990 RMK AO2
Loading
Personal Weather Stations






























Interactive Weather Map New forecast layout! Learn more

10-Day Weather Forecast

Advertisements
Track Severe Weather on mobile